sensor_id;sensor_type;location;lat;lon;timestamp;P1;durP1;ratioP1;P2;durP2;ratioP2
66169;SDS011;66757;44.024;20.456;2023-02-23T00:02:22;193.57;;;103.03;;
66169;SDS011;66757;44.024;20.456;2023-02-23T00:04:47;179.13;;;98.38;;
66169;SDS011;66757;44.024;20.456;2023-02-23T00:07:12;187.77;;;98.32;;
66169;SDS011;66757;44.024;20.456;2023-02-23T00:09:38;205.63;;;105.13;;
66169;SDS011;66757;44.024;20.456;2023-02-23T00:12:05;202.57;;;107.78;;
66169;SDS011;66757;44.024;20.456;2023-02-23T00:14:34;203.15;;;103.20;;
66169;SDS011;66757;44.024;20.456;2023-02-23T00:17:01;200.68;;;109.15;;
66169;SDS011;66757;44.024;20.456;2023-02-23T00:19:27;221.20;;;114.63;;
66169;SDS011;66757;44.024;20.456;2023-02-23T00:21:52;183.80;;;98.13;;
66169;SDS011;66757;44.024;20.456;2023-02-23T00:24:18;162.07;;;86.28;;
66169;SDS011;66757;44.024;20.456;2023-02-23T00:26:44;158.20;;;84.63;;
66169;SDS011;66757;44.024;20.456;2023-02-23T00:29:16;173.15;;;94.57;;
66169;SDS011;66757;44.024;20.456;2023-02-23T00:31:44;175.68;;;94.30;;
66169;SDS011;66757;44.024;20.456;2023-02-23T00:34:11;157.90;;;88.57;;
66169;SDS011;66757;44.024;20.456;2023-02-23T00:36:36;161.20;;;86.50;;
66169;SDS011;66757;44.024;20.456;2023-02-23T00:39:06;146.80;;;80.30;;
66169;SDS011;66757;44.024;20.456;2023-02-23T00:41:45;137.65;;;78.65;;
66169;SDS011;66757;44.024;20.456;2023-02-23T00:44:10;143.52;;;78.35;;
66169;SDS011;66757;44.024;20.456;2023-02-23T00:46:39;145.27;;;79.32;;
66169;SDS011;66757;44.024;20.456;2023-02-23T00:49:05;139.63;;;74.53;;
66169;SDS011;66757;44.024;20.456;2023-02-23T00:51:31;139.60;;;75.50;;
66169;SDS011;66757;44.024;20.456;2023-02-23T00:53:57;139.75;;;78.70;;
66169;SDS011;66757;44.024;20.456;2023-02-23T00:56:25;133.77;;;76.72;;
66169;SDS011;66757;44.024;20.456;2023-02-23T00:58:50;145.90;;;79.28;;
66169;SDS011;66757;44.024;20.456;2023-02-23T01:01:17;153.32;;;81.95;;
66169;SDS011;66757;44.024;20.456;2023-02-23T01:03:43;147.48;;;80.00;;
66169;SDS011;66757;44.024;20.456;2023-02-23T01:06:10;135.50;;;75.00;;
66169;SDS011;66757;44.024;20.456;2023-02-23T01:08:37;143.05;;;76.15;;
66169;SDS011;66757;44.024;20.456;2023-02-23T01:11:06;145.38;;;79.22;;
66169;SDS011;66757;44.024;20.456;2023-02-23T01:13:33;137.80;;;75.18;;
66169;SDS011;66757;44.024;20.456;2023-02-23T01:15:59;140.73;;;77.93;;
66169;SDS011;66757;44.024;20.456;2023-02-23T01:18:24;146.50;;;81.82;;
66169;SDS011;66757;44.024;20.456;2023-02-23T01:20:49;146.45;;;78.55;;
66169;SDS011;66757;44.024;20.456;2023-02-23T01:23:16;148.98;;;79.57;;
66169;SDS011;66757;44.024;20.456;2023-02-23T01:25:42;143.68;;;77.53;;
66169;SDS011;66757;44.024;20.456;2023-02-23T01:28:08;139.00;;;76.07;;
66169;SDS011;66757;44.024;20.456;2023-02-23T01:30:33;140.05;;;76.55;;
66169;SDS011;66757;44.024;20.456;2023-02-23T01:32:59;145.82;;;77.68;;
66169;SDS011;66757;44.024;20.456;2023-02-23T01:35:25;150.32;;;80.63;;
66169;SDS011;66757;44.024;20.456;2023-02-23T01:37:50;152.73;;;76.85;;
66169;SDS011;66757;44.024;20.456;2023-02-23T01:40:19;144.70;;;78.00;;
66169;SDS011;66757;44.024;20.456;2023-02-23T01:42:55;148.25;;;78.50;;
66169;SDS011;66757;44.024;20.456;2023-02-23T01:45:25;142.57;;;77.93;;
66169;SDS011;66757;44.024;20.456;2023-02-23T01:47:52;133.43;;;75.70;;
66169;SDS011;66757;44.024;20.456;2023-02-23T01:50:18;104.25;;;58.20;;
66169;SDS011;66757;44.024;20.456;2023-02-23T01:52:45;100.57;;;53.95;;
66169;SDS011;66757;44.024;20.456;2023-02-23T01:55:11;99.82;;;59.13;;
66169;SDS011;66757;44.024;20.456;2023-02-23T01:57:38;95.93;;;54.33;;
66169;SDS011;66757;44.024;20.456;2023-02-23T02:00:05;124.40;;;66.93;;
66169;SDS011;66757;44.024;20.456;2023-02-23T02:02:39;124.05;;;65.82;;
66169;SDS011;66757;44.024;20.456;2023-02-23T02:05:05;117.95;;;64.68;;
66169;SDS011;66757;44.024;20.456;2023-02-23T02:07:37;118.03;;;62.50;;
66169;SDS011;66757;44.024;20.456;2023-02-23T02:10:04;119.72;;;66.75;;
66169;SDS011;66757;44.024;20.456;2023-02-23T02:12:36;126.80;;;65.05;;
66169;SDS011;66757;44.024;20.456;2023-02-23T02:15:05;126.03;;;68.72;;
66169;SDS011;66757;44.024;20.456;2023-02-23T02:35:36;112.15;;;58.45;;
66169;SDS011;66757;44.024;20.456;2023-02-23T02:38:11;88.10;;;47.03;;
66169;SDS011;66757;44.024;20.456;2023-02-23T02:46:17;97.47;;;52.67;;
66169;SDS011;66757;44.024;20.456;2023-02-23T02:49:00;100.05;;;58.05;;
66169;SDS011;66757;44.024;20.456;2023-02-23T02:51:39;104.30;;;56.28;;
66169;SDS011;66757;44.024;20.456;2023-02-23T02:56:39;116.57;;;64.07;;
66169;SDS011;66757;44.024;20.456;2023-02-23T02:59:16;115.47;;;65.05;;
66169;SDS011;66757;44.024;20.456;2023-02-23T03:02:03;108.00;;;60.25;;
66169;SDS011;66757;44.024;20.456;2023-02-23T03:04:47;101.80;;;57.37;;
66169;SDS011;66757;44.024;20.456;2023-02-23T03:10:28;98.03;;;52.83;;
66169;SDS011;66757;44.024;20.456;2023-02-23T03:16:19;95.55;;;49.35;;
66169;SDS011;66757;44.024;20.456;2023-02-23T03:19:08;87.35;;;48.58;;
66169;SDS011;66757;44.024;20.456;2023-02-23T03:21:56;94.65;;;50.25;;
66169;SDS011;66757;44.024;20.456;2023-02-23T03:24:54;92.15;;;51.45;;
66169;SDS011;66757;44.024;20.456;2023-02-23T03:27:51;94.18;;;48.53;;
66169;SDS011;66757;44.024;20.456;2023-02-23T03:30:38;88.90;;;48.40;;
66169;SDS011;66757;44.024;20.456;2023-02-23T03:33:28;92.68;;;51.58;;
66169;SDS011;66757;44.024;20.456;2023-02-23T03:36:15;91.13;;;51.30;;
66169;SDS011;66757;44.024;20.456;2023-02-23T03:39:02;86.15;;;48.00;;
66169;SDS011;66757;44.024;20.456;2023-02-23T03:41:48;94.47;;;49.58;;
66169;SDS011;66757;44.024;20.456;2023-02-23T03:44:36;98.95;;;55.22;;
66169;SDS011;66757;44.024;20.456;2023-02-23T03:47:22;96.63;;;51.83;;
66169;SDS011;66757;44.024;20.456;2023-02-23T03:50:10;97.20;;;51.33;;
66169;SDS011;66757;44.024;20.456;2023-02-23T03:52:56;94.03;;;53.45;;
66169;SDS011;66757;44.024;20.456;2023-02-23T03:55:42;92.65;;;50.78;;
66169;SDS011;66757;44.024;20.456;2023-02-23T03:58:30;80.70;;;44.95;;
66169;SDS011;66757;44.024;20.456;2023-02-23T04:01:14;80.88;;;43.97;;
66169;SDS011;66757;44.024;20.456;2023-02-23T04:04:00;76.07;;;41.20;;
66169;SDS011;66757;44.024;20.456;2023-02-23T04:06:45;73.45;;;39.40;;
66169;SDS011;66757;44.024;20.456;2023-02-23T04:09:31;85.90;;;43.53;;
66169;SDS011;66757;44.024;20.456;2023-02-23T04:12:18;93.10;;;44.75;;
66169;SDS011;66757;44.024;20.456;2023-02-23T04:15:09;107.53;;;52.72;;
66169;SDS011;66757;44.024;20.456;2023-02-23T04:17:37;101.70;;;51.60;;
66169;SDS011;66757;44.024;20.456;2023-02-23T04:20:02;95.57;;;50.47;;
66169;SDS011;66757;44.024;20.456;2023-02-23T04:22:28;99.85;;;55.80;;
66169;SDS011;66757;44.024;20.456;2023-02-23T04:24:54;98.43;;;54.78;;
66169;SDS011;66757;44.024;20.456;2023-02-23T04:27:20;100.35;;;56.05;;
66169;SDS011;66757;44.024;20.456;2023-02-23T04:29:45;96.10;;;54.05;;
66169;SDS011;66757;44.024;20.456;2023-02-23T04:32:15;105.60;;;55.55;;
66169;SDS011;66757;44.024;20.456;2023-02-23T04:34:41;106.72;;;57.72;;
66169;SDS011;66757;44.024;20.456;2023-02-23T04:37:07;122.70;;;66.47;;
66169;SDS011;66757;44.024;20.456;2023-02-23T04:39:32;117.03;;;62.67;;
66169;SDS011;66757;44.024;20.456;2023-02-23T04:41:59;94.50;;;52.83;;
66169;SDS011;66757;44.024;20.456;2023-02-23T04:44:25;158.13;;;83.85;;
66169;SDS011;66757;44.024;20.456;2023-02-23T04:46:51;184.15;;;90.50;;
66169;SDS011;66757;44.024;20.456;2023-02-23T04:49:16;197.43;;;96.57;;
66169;SDS011;66757;44.024;20.456;2023-02-23T04:51:44;113.80;;;59.45;;
66169;SDS011;66757;44.024;20.456;2023-02-23T04:54:09;81.95;;;44.72;;
66169;SDS011;66757;44.024;20.456;2023-02-23T04:56:35;80.95;;;43.88;;
66169;SDS011;66757;44.024;20.456;2023-02-23T04:59:00;296.30;;;139.48;;
66169;SDS011;66757;44.024;20.456;2023-02-23T05:01:26;110.15;;;57.45;;
66169;SDS011;66757;44.024;20.456;2023-02-23T05:03:52;138.75;;;70.82;;
66169;SDS011;66757;44.024;20.456;2023-02-23T05:06:18;131.77;;;66.68;;
66169;SDS011;66757;44.024;20.456;2023-02-23T05:08:43;71.90;;;39.63;;
66169;SDS011;66757;44.024;20.456;2023-02-23T05:11:09;73.80;;;39.13;;
66169;SDS011;66757;44.024;20.456;2023-02-23T05:13:35;72.55;;;37.15;;
66169;SDS011;66757;44.024;20.456;2023-02-23T05:16:00;70.57;;;37.05;;
66169;SDS011;66757;44.024;20.456;2023-02-23T05:18:26;70.00;;;40.22;;
66169;SDS011;66757;44.024;20.456;2023-02-23T05:20:52;74.97;;;38.67;;
66169;SDS011;66757;44.024;20.456;2023-02-23T05:23:19;81.88;;;44.03;;
66169;SDS011;66757;44.024;20.456;2023-02-23T05:25:45;84.68;;;44.15;;
66169;SDS011;66757;44.024;20.456;2023-02-23T05:28:13;95.03;;;48.40;;
66169;SDS011;66757;44.024;20.456;2023-02-23T05:30:38;88.93;;;48.22;;
66169;SDS011;66757;44.024;20.456;2023-02-23T05:33:03;88.05;;;47.05;;
66169;SDS011;66757;44.024;20.456;2023-02-23T05:35:29;113.85;;;60.72;;
66169;SDS011;66757;44.024;20.456;2023-02-23T05:37:54;154.45;;;79.20;;
66169;SDS011;66757;44.024;20.456;2023-02-23T05:40:20;162.80;;;80.75;;
66169;SDS011;66757;44.024;20.456;2023-02-23T05:42:45;138.25;;;78.40;;
66169;SDS011;66757;44.024;20.456;2023-02-23T05:45:10;110.43;;;61.15;;
66169;SDS011;66757;44.024;20.456;2023-02-23T05:47:36;108.30;;;60.10;;
66169;SDS011;66757;44.024;20.456;2023-02-23T05:50:03;114.15;;;62.53;;
66169;SDS011;66757;44.024;20.456;2023-02-23T05:52:29;124.95;;;70.07;;
66169;SDS011;66757;44.024;20.456;2023-02-23T05:54:54;128.63;;;72.82;;
66169;SDS011;66757;44.024;20.456;2023-02-23T05:57:19;118.70;;;67.65;;
66169;SDS011;66757;44.024;20.456;2023-02-23T05:59:45;117.13;;;63.05;;
66169;SDS011;66757;44.024;20.456;2023-02-23T06:02:10;118.25;;;67.07;;
66169;SDS011;66757;44.024;20.456;2023-02-23T06:04:35;122.70;;;72.22;;
66169;SDS011;66757;44.024;20.456;2023-02-23T06:07:00;112.47;;;61.13;;
66169;SDS011;66757;44.024;20.456;2023-02-23T06:09:26;103.75;;;61.67;;
66169;SDS011;66757;44.024;20.456;2023-02-23T06:11:51;114.95;;;64.45;;
66169;SDS011;66757;44.024;20.456;2023-02-23T06:14:17;117.22;;;60.67;;
66169;SDS011;66757;44.024;20.456;2023-02-23T06:16:43;115.97;;;59.83;;
66169;SDS011;66757;44.024;20.456;2023-02-23T06:19:09;97.80;;;53.33;;
66169;SDS011;66757;44.024;20.456;2023-02-23T06:21:35;97.85;;;54.17;;
66169;SDS011;66757;44.024;20.456;2023-02-23T06:24:00;107.00;;;57.00;;
66169;SDS011;66757;44.024;20.456;2023-02-23T06:26:27;100.90;;;55.35;;
66169;SDS011;66757;44.024;20.456;2023-02-23T06:28:53;89.85;;;52.25;;
66169;SDS011;66757;44.024;20.456;2023-02-23T06:31:19;87.63;;;51.17;;
66169;SDS011;66757;44.024;20.456;2023-02-23T06:33:44;88.57;;;52.63;;
66169;SDS011;66757;44.024;20.456;2023-02-23T06:36:09;95.18;;;54.58;;
66169;SDS011;66757;44.024;20.456;2023-02-23T06:38:35;101.82;;;59.45;;
66169;SDS011;66757;44.024;20.456;2023-02-23T06:41:05;101.82;;;58.65;;
66169;SDS011;66757;44.024;20.456;2023-02-23T06:43:31;90.85;;;53.17;;
66169;SDS011;66757;44.024;20.456;2023-02-23T06:45:56;88.30;;;53.03;;
66169;SDS011;66757;44.024;20.456;2023-02-23T06:48:21;84.00;;;48.80;;
66169;SDS011;66757;44.024;20.456;2023-02-23T06:50:46;86.75;;;48.47;;
66169;SDS011;66757;44.024;20.456;2023-02-23T06:53:12;74.70;;;43.92;;
66169;SDS011;66757;44.024;20.456;2023-02-23T06:55:37;72.65;;;41.60;;
66169;SDS011;66757;44.024;20.456;2023-02-23T06:58:02;80.95;;;44.03;;
66169;SDS011;66757;44.024;20.456;2023-02-23T07:00:29;88.72;;;45.40;;
66169;SDS011;66757;44.024;20.456;2023-02-23T07:02:55;83.13;;;44.08;;
66169;SDS011;66757;44.024;20.456;2023-02-23T07:05:20;67.82;;;35.38;;
66169;SDS011;66757;44.024;20.456;2023-02-23T07:07:46;69.88;;;36.08;;
66169;SDS011;66757;44.024;20.456;2023-02-23T07:10:11;69.95;;;38.38;;
66169;SDS011;66757;44.024;20.456;2023-02-23T07:12:36;79.82;;;43.70;;
66169;SDS011;66757;44.024;20.456;2023-02-23T07:15:02;84.90;;;45.80;;
66169;SDS011;66757;44.024;20.456;2023-02-23T07:17:27;95.18;;;49.65;;
66169;SDS011;66757;44.024;20.456;2023-02-23T07:19:53;105.53;;;57.25;;
66169;SDS011;66757;44.024;20.456;2023-02-23T07:22:18;104.10;;;55.83;;
66169;SDS011;66757;44.024;20.456;2023-02-23T07:24:44;98.93;;;53.65;;
66169;SDS011;66757;44.024;20.456;2023-02-23T07:27:10;87.80;;;50.58;;
66169;SDS011;66757;44.024;20.456;2023-02-23T07:29:36;98.15;;;54.40;;
66169;SDS011;66757;44.024;20.456;2023-02-23T07:32:01;106.25;;;54.53;;
66169;SDS011;66757;44.024;20.456;2023-02-23T07:34:27;100.72;;;53.60;;
66169;SDS011;66757;44.024;20.456;2023-02-23T07:36:52;97.07;;;54.03;;
66169;SDS011;66757;44.024;20.456;2023-02-23T07:39:17;110.75;;;58.80;;
66169;SDS011;66757;44.024;20.456;2023-02-23T07:41:43;100.80;;;58.78;;
66169;SDS011;66757;44.024;20.456;2023-02-23T07:44:08;103.38;;;58.65;;
66169;SDS011;66757;44.024;20.456;2023-02-23T07:46:33;102.28;;;55.72;;
66169;SDS011;66757;44.024;20.456;2023-02-23T07:48:59;111.68;;;64.95;;
66169;SDS011;66757;44.024;20.456;2023-02-23T07:51:24;108.72;;;61.78;;
66169;SDS011;66757;44.024;20.456;2023-02-23T07:53:49;110.13;;;61.53;;
66169;SDS011;66757;44.024;20.456;2023-02-23T07:56:15;108.72;;;64.82;;
66169;SDS011;66757;44.024;20.456;2023-02-23T07:58:40;107.97;;;64.40;;
66169;SDS011;66757;44.024;20.456;2023-02-23T08:01:06;117.35;;;67.78;;
66169;SDS011;66757;44.024;20.456;2023-02-23T08:03:31;112.00;;;64.95;;
66169;SDS011;66757;44.024;20.456;2023-02-23T08:05:57;109.63;;;64.03;;
66169;SDS011;66757;44.024;20.456;2023-02-23T08:08:23;100.55;;;63.92;;
66169;SDS011;66757;44.024;20.456;2023-02-23T08:10:49;136.10;;;66.72;;
66169;SDS011;66757;44.024;20.456;2023-02-23T08:13:14;111.28;;;63.72;;
66169;SDS011;66757;44.024;20.456;2023-02-23T08:15:40;108.07;;;62.25;;
66169;SDS011;66757;44.024;20.456;2023-02-23T08:18:05;100.05;;;58.38;;
66169;SDS011;66757;44.024;20.456;2023-02-23T08:20:31;106.25;;;56.25;;
66169;SDS011;66757;44.024;20.456;2023-02-23T08:22:58;108.45;;;55.17;;
66169;SDS011;66757;44.024;20.456;2023-02-23T08:25:23;89.15;;;52.88;;
66169;SDS011;66757;44.024;20.456;2023-02-23T08:27:49;87.75;;;53.40;;
66169;SDS011;66757;44.024;20.456;2023-02-23T08:30:19;113.18;;;54.95;;
66169;SDS011;66757;44.024;20.456;2023-02-23T08:32:45;98.05;;;51.13;;
66169;SDS011;66757;44.024;20.456;2023-02-23T08:35:12;92.22;;;48.92;;
66169;SDS011;66757;44.024;20.456;2023-02-23T08:37:37;77.97;;;47.58;;
66169;SDS011;66757;44.024;20.456;2023-02-23T08:40:03;73.47;;;45.33;;
66169;SDS011;66757;44.024;20.456;2023-02-23T08:42:28;84.35;;;47.55;;
66169;SDS011;66757;44.024;20.456;2023-02-23T08:44:54;124.70;;;54.83;;
66169;SDS011;66757;44.024;20.456;2023-02-23T08:47:19;90.38;;;48.85;;
66169;SDS011;66757;44.024;20.456;2023-02-23T08:49:46;84.25;;;46.55;;
66169;SDS011;66757;44.024;20.456;2023-02-23T08:52:11;85.57;;;48.22;;
66169;SDS011;66757;44.024;20.456;2023-02-23T08:54:37;106.18;;;48.40;;
66169;SDS011;66757;44.024;20.456;2023-02-23T08:57:03;84.22;;;44.70;;
66169;SDS011;66757;44.024;20.456;2023-02-23T08:59:29;75.13;;;41.42;;
66169;SDS011;66757;44.024;20.456;2023-02-23T09:01:54;72.85;;;42.95;;
66169;SDS011;66757;44.024;20.456;2023-02-23T09:04:19;75.00;;;40.92;;
66169;SDS011;66757;44.024;20.456;2023-02-23T09:06:45;68.53;;;40.08;;
66169;SDS011;66757;44.024;20.456;2023-02-23T09:09:11;70.60;;;38.92;;
66169;SDS011;66757;44.024;20.456;2023-02-23T09:11:37;66.63;;;40.10;;
66169;SDS011;66757;44.024;20.456;2023-02-23T09:14:02;50.78;;;31.58;;
66169;SDS011;66757;44.024;20.456;2023-02-23T09:16:27;29.10;;;19.17;;
66169;SDS011;66757;44.024;20.456;2023-02-23T09:18:53;27.75;;;19.55;;
66169;SDS011;66757;44.024;20.456;2023-02-23T09:21:19;34.63;;;20.80;;
66169;SDS011;66757;44.024;20.456;2023-02-23T09:23:49;29.23;;;18.90;;
66169;SDS011;66757;44.024;20.456;2023-02-23T09:26:16;35.95;;;19.85;;
66169;SDS011;66757;44.024;20.456;2023-02-23T09:28:42;35.75;;;19.55;;
66169;SDS011;66757;44.024;20.456;2023-02-23T09:31:12;38.42;;;21.27;;
66169;SDS011;66757;44.024;20.456;2023-02-23T09:33:38;32.92;;;20.30;;
66169;SDS011;66757;44.024;20.456;2023-02-23T09:36:07;19.80;;;13.32;;
66169;SDS011;66757;44.024;20.456;2023-02-23T09:38:33;20.70;;;13.30;;
66169;SDS011;66757;44.024;20.456;2023-02-23T09:40:58;24.83;;;13.95;;
66169;SDS011;66757;44.024;20.456;2023-02-23T09:43:46;33.08;;;13.75;;
66169;SDS011;66757;44.024;20.456;2023-02-23T09:48:57;19.23;;;11.98;;
66169;SDS011;66757;44.024;20.456;2023-02-23T09:51:23;25.67;;;14.57;;
66169;SDS011;66757;44.024;20.456;2023-02-23T09:56:35;13.25;;;8.52;;
66169;SDS011;66757;44.024;20.456;2023-02-23T09:59:01;12.45;;;7.60;;
66169;SDS011;66757;44.024;20.456;2023-02-23T10:06:33;8.68;;;5.50;;
66169;SDS011;66757;44.024;20.456;2023-02-23T10:09:04;9.48;;;5.57;;
66169;SDS011;66757;44.024;20.456;2023-02-23T10:11:34;13.80;;;5.88;;
66169;SDS011;66757;44.024;20.456;2023-02-23T10:20:02;6.65;;;4.65;;
66169;SDS011;66757;44.024;20.456;2023-02-23T10:22:17;6.20;;;4.38;;
66169;SDS011;66757;44.024;20.456;2023-02-23T10:27:26;10.35;;;5.75;;
66169;SDS011;66757;44.024;20.456;2023-02-23T10:29:54;10.23;;;6.18;;
66169;SDS011;66757;44.024;20.456;2023-02-23T10:34:55;4.35;;;2.90;;
66169;SDS011;66757;44.024;20.456;2023-02-23T10:37:22;6.25;;;2.95;;
66169;SDS011;66757;44.024;20.456;2023-02-23T10:39:48;7.35;;;3.22;;
66169;SDS011;66757;44.024;20.456;2023-02-23T10:42:21;5.28;;;3.40;;
66169;SDS011;66757;44.024;20.456;2023-02-23T10:44:47;30.13;;;4.32;;
66169;SDS011;66757;44.024;20.456;2023-02-23T10:47:15;8.00;;;3.40;;
66169;SDS011;66757;44.024;20.456;2023-02-23T10:49:42;3.20;;;2.65;;
66169;SDS011;66757;44.024;20.456;2023-02-23T10:52:10;14.55;;;4.22;;
66169;SDS011;66757;44.024;20.456;2023-02-23T10:54:41;11.40;;;4.00;;
66169;SDS011;66757;44.024;20.456;2023-02-23T10:57:12;7.45;;;3.78;;
66169;SDS011;66757;44.024;20.456;2023-02-23T10:59:55;4.18;;;3.00;;
66169;SDS011;66757;44.024;20.456;2023-02-23T11:02:23;6.38;;;3.75;;
66169;SDS011;66757;44.024;20.456;2023-02-23T11:04:49;8.77;;;4.55;;
66169;SDS011;66757;44.024;20.456;2023-02-23T11:07:18;16.60;;;4.40;;
66169;SDS011;66757;44.024;20.456;2023-02-23T11:09:45;9.82;;;5.03;;
66169;SDS011;66757;44.024;20.456;2023-02-23T11:12:18;10.50;;;3.88;;
66169;SDS011;66757;44.024;20.456;2023-02-23T11:14:50;7.25;;;3.67;;
66169;SDS011;66757;44.024;20.456;2023-02-23T11:19:47;17.33;;;4.20;;
66169;SDS011;66757;44.024;20.456;2023-02-23T11:22:17;6.93;;;4.32;;
66169;SDS011;66757;44.024;20.456;2023-02-23T11:24:47;13.32;;;6.97;;
66169;SDS011;66757;44.024;20.456;2023-02-23T11:27:20;10.52;;;4.07;;
66169;SDS011;66757;44.024;20.456;2023-02-23T11:29:47;5.18;;;3.10;;
66169;SDS011;66757;44.024;20.456;2023-02-23T11:34:46;8.13;;;2.90;;
66169;SDS011;66757;44.024;20.456;2023-02-23T11:40:01;10.88;;;4.60;;
66169;SDS011;66757;44.024;20.456;2023-02-23T11:42:27;6.63;;;4.07;;
66169;SDS011;66757;44.024;20.456;2023-02-23T11:45:04;11.40;;;3.90;;
66169;SDS011;66757;44.024;20.456;2023-02-23T11:47:30;6.95;;;3.47;;
66169;SDS011;66757;44.024;20.456;2023-02-23T11:49:56;4.93;;;3.20;;
66169;SDS011;66757;44.024;20.456;2023-02-23T11:52:22;6.50;;;4.13;;
66169;SDS011;66757;44.024;20.456;2023-02-23T11:54:53;5.40;;;2.95;;
66169;SDS011;66757;44.024;20.456;2023-02-23T11:57:23;5.97;;;3.78;;
66169;SDS011;66757;44.024;20.456;2023-02-23T11:59:48;16.08;;;4.70;;
66169;SDS011;66757;44.024;20.456;2023-02-23T12:04:43;5.32;;;3.58;;
66169;SDS011;66757;44.024;20.456;2023-02-23T12:09:44;3.92;;;3.55;;
66169;SDS011;66757;44.024;20.456;2023-02-23T12:12:11;7.53;;;3.95;;
66169;SDS011;66757;44.024;20.456;2023-02-23T12:14:40;8.15;;;3.72;;
66169;SDS011;66757;44.024;20.456;2023-02-23T12:17:27;5.60;;;3.10;;
66169;SDS011;66757;44.024;20.456;2023-02-23T12:20:01;4.00;;;2.50;;
66169;SDS011;66757;44.024;20.456;2023-02-23T12:22:28;5.15;;;3.30;;
66169;SDS011;66757;44.024;20.456;2023-02-23T12:25:08;6.60;;;3.45;;
66169;SDS011;66757;44.024;20.456;2023-02-23T12:30:04;7.57;;;3.72;;
66169;SDS011;66757;44.024;20.456;2023-02-23T12:35:01;4.65;;;3.47;;
66169;SDS011;66757;44.024;20.456;2023-02-23T12:37:37;5.50;;;4.05;;
66169;SDS011;66757;44.024;20.456;2023-02-23T12:40:17;5.28;;;4.68;;
66169;SDS011;66757;44.024;20.456;2023-02-23T12:50:57;9.75;;;6.70;;
66169;SDS011;66757;44.024;20.456;2023-02-23T12:53:25;13.90;;;7.13;;
66169;SDS011;66757;44.024;20.456;2023-02-23T13:01:16;14.52;;;6.95;;
66169;SDS011;66757;44.024;20.456;2023-02-23T13:11:24;16.48;;;9.13;;
66169;SDS011;66757;44.024;20.456;2023-02-23T13:18:58;34.33;;;23.73;;
66169;SDS011;66757;44.024;20.456;2023-02-23T13:21:28;18.73;;;9.68;;
66169;SDS011;66757;44.024;20.456;2023-02-23T13:24:05;14.18;;;10.07;;
66169;SDS011;66757;44.024;20.456;2023-02-23T13:29:02;20.73;;;14.15;;
66169;SDS011;66757;44.024;20.456;2023-02-23T13:31:35;28.50;;;15.05;;
66169;SDS011;66757;44.024;20.456;2023-02-23T13:34:01;11.85;;;9.40;;
66169;SDS011;66757;44.024;20.456;2023-02-23T13:36:28;14.50;;;8.32;;
66169;SDS011;66757;44.024;20.456;2023-02-23T13:42:29;13.88;;;9.48;;
66169;SDS011;66757;44.024;20.456;2023-02-23T13:44:28;13.23;;;8.23;;
66169;SDS011;66757;44.024;20.456;2023-02-23T13:54:35;13.95;;;8.45;;
66169;SDS011;66757;44.024;20.456;2023-02-23T13:57:02;16.08;;;8.48;;
66169;SDS011;66757;44.024;20.456;2023-02-23T13:59:30;12.10;;;8.57;;
66169;SDS011;66757;44.024;20.456;2023-02-23T14:02:01;11.45;;;8.32;;
66169;SDS011;66757;44.024;20.456;2023-02-23T14:04:39;15.85;;;9.27;;
66169;SDS011;66757;44.024;20.456;2023-02-23T14:10:13;14.60;;;9.52;;
66169;SDS011;66757;44.024;20.456;2023-02-23T14:12:34;13.52;;;9.10;;
66169;SDS011;66757;44.024;20.456;2023-02-23T14:17:54;14.05;;;9.43;;
66169;SDS011;66757;44.024;20.456;2023-02-23T14:20:23;13.35;;;8.80;;
66169;SDS011;66757;44.024;20.456;2023-02-23T14:28:00;15.10;;;8.93;;
66169;SDS011;66757;44.024;20.456;2023-02-23T14:30:27;27.02;;;10.93;;
66169;SDS011;66757;44.024;20.456;2023-02-23T14:32:52;16.42;;;8.60;;
66169;SDS011;66757;44.024;20.456;2023-02-23T14:35:35;14.63;;;8.05;;
66169;SDS011;66757;44.024;20.456;2023-02-23T14:40:32;14.35;;;7.97;;
66169;SDS011;66757;44.024;20.456;2023-02-23T14:43:00;18.98;;;8.27;;
66169;SDS011;66757;44.024;20.456;2023-02-23T14:45:26;17.13;;;11.38;;
66169;SDS011;66757;44.024;20.456;2023-02-23T14:47:56;17.33;;;9.48;;
66169;SDS011;66757;44.024;20.456;2023-02-23T14:50:31;13.93;;;9.05;;
66169;SDS011;66757;44.024;20.456;2023-02-23T14:52:57;29.55;;;20.10;;
66169;SDS011;66757;44.024;20.456;2023-02-23T14:55:26;45.92;;;28.65;;
66169;SDS011;66757;44.024;20.456;2023-02-23T14:57:52;17.52;;;12.63;;
66169;SDS011;66757;44.024;20.456;2023-02-23T15:00:22;19.70;;;14.30;;
66169;SDS011;66757;44.024;20.456;2023-02-23T15:07:48;14.32;;;10.23;;
66169;SDS011;66757;44.024;20.456;2023-02-23T15:10:29;18.90;;;12.98;;
66169;SDS011;66757;44.024;20.456;2023-02-23T15:12:55;12.55;;;6.10;;
66169;SDS011;66757;44.024;20.456;2023-02-23T15:15:22;15.80;;;8.20;;
66169;SDS011;66757;44.024;20.456;2023-02-23T15:17:48;14.27;;;7.57;;
66169;SDS011;66757;44.024;20.456;2023-02-23T15:20:17;15.13;;;11.65;;
66169;SDS011;66757;44.024;20.456;2023-02-23T15:22:45;12.73;;;7.50;;
66169;SDS011;66757;44.024;20.456;2023-02-23T15:25:15;11.43;;;7.25;;
66169;SDS011;66757;44.024;20.456;2023-02-23T15:27:41;12.30;;;6.78;;
66169;SDS011;66757;44.024;20.456;2023-02-23T15:32:43;14.60;;;8.15;;
66169;SDS011;66757;44.024;20.456;2023-02-23T15:35:09;10.43;;;6.80;;
66169;SDS011;66757;44.024;20.456;2023-02-23T15:37:36;13.32;;;6.72;;
66169;SDS011;66757;44.024;20.456;2023-02-23T15:40:14;15.57;;;11.48;;
66169;SDS011;66757;44.024;20.456;2023-02-23T15:42:44;13.63;;;7.63;;
66169;SDS011;66757;44.024;20.456;2023-02-23T15:45:18;64.70;;;37.63;;
66169;SDS011;66757;44.024;20.456;2023-02-23T15:47:44;33.88;;;21.77;;
66169;SDS011;66757;44.024;20.456;2023-02-23T15:50:15;44.35;;;24.77;;
66169;SDS011;66757;44.024;20.456;2023-02-23T15:52:48;27.95;;;15.77;;
66169;SDS011;66757;44.024;20.456;2023-02-23T15:55:36;35.75;;;24.08;;
66169;SDS011;66757;44.024;20.456;2023-02-23T15:58:12;25.40;;;15.25;;
66169;SDS011;66757;44.024;20.456;2023-02-23T16:00:41;13.48;;;11.82;;
66169;SDS011;66757;44.024;20.456;2023-02-23T16:03:07;16.33;;;10.07;;
66169;SDS011;66757;44.024;20.456;2023-02-23T16:05:33;17.08;;;10.52;;
66169;SDS011;66757;44.024;20.456;2023-02-23T16:08:22;15.52;;;10.20;;
66169;SDS011;66757;44.024;20.456;2023-02-23T16:10:49;15.63;;;8.85;;
66169;SDS011;66757;44.024;20.456;2023-02-23T16:13:16;11.93;;;8.88;;
66169;SDS011;66757;44.024;20.456;2023-02-23T16:15:41;19.20;;;9.25;;
66169;SDS011;66757;44.024;20.456;2023-02-23T16:18:17;21.10;;;13.82;;
66169;SDS011;66757;44.024;20.456;2023-02-23T16:20:48;32.75;;;21.88;;
66169;SDS011;66757;44.024;20.456;2023-02-23T16:26:08;57.00;;;36.47;;
66169;SDS011;66757;44.024;20.456;2023-02-23T16:28:33;37.50;;;24.23;;
66169;SDS011;66757;44.024;20.456;2023-02-23T16:31:03;27.77;;;18.00;;
66169;SDS011;66757;44.024;20.456;2023-02-23T16:33:30;34.22;;;18.05;;
66169;SDS011;66757;44.024;20.456;2023-02-23T16:38:39;88.40;;;55.00;;